createdAt,value
2022-12-02T05:30:35.768Z,4.78
2022-12-02T05:31:35.789Z,4.77
2022-12-02T05:32:35.751Z,4.82
2022-12-02T05:33:35.709Z,4.86
2022-12-02T05:34:35.696Z,4.80
2022-12-02T05:35:35.746Z,4.82
2022-12-02T05:36:35.706Z,4.78
2022-12-02T05:37:35.667Z,4.78
2022-12-02T05:38:35.649Z,4.78
2022-12-02T05:39:35.641Z,4.82
2022-12-02T05:40:35.677Z,4.89
2022-12-02T05:41:35.639Z,4.84
2022-12-02T05:42:35.613Z,4.89
2022-12-02T05:43:35.609Z,4.88
2022-12-02T05:44:39.657Z,4.94
2022-12-02T05:45:35.603Z,4.91
2022-12-02T05:46:35.697Z,4.94
2022-12-02T05:47:35.554Z,4.77
2022-12-02T05:48:35.541Z,4.94
2022-12-02T05:49:35.540Z,4.82
2022-12-02T05:50:35.519Z,4.84
2022-12-02T05:51:35.527Z,4.84
2022-12-02T05:52:35.495Z,4.82
2022-12-02T05:53:35.519Z,4.69
2022-12-02T05:54:35.480Z,4.66
2022-12-02T05:55:35.471Z,4.75
2022-12-02T05:56:35.459Z,4.69
2022-12-02T05:57:35.448Z,4.77
2022-12-02T05:58:35.431Z,4.69
2022-12-02T05:59:35.468Z,4.67
2022-12-02T06:00:35.426Z,4.60
2022-12-02T06:01:35.442Z,4.65
2022-12-02T06:02:40.377Z,4.62
2022-12-02T06:03:36.439Z,4.66
2022-12-02T06:04:35.382Z,4.66
2022-12-02T06:05:35.379Z,4.62
2022-12-02T06:06:35.374Z,4.72
2022-12-02T06:07:35.469Z,4.66
2022-12-02T06:08:39.920Z,4.67
2022-12-02T06:09:35.320Z,4.72
2022-12-02T06:10:35.305Z,4.63
2022-12-02T06:11:35.298Z,4.62
2022-12-02T06:12:35.311Z,4.66
2022-12-02T06:13:35.303Z,4.67
2022-12-02T06:14:35.266Z,4.70
2022-12-02T06:15:35.254Z,4.65
2022-12-02T06:16:35.316Z,4.69
2022-12-02T06:17:35.234Z,4.69
2022-12-02T06:18:35.244Z,4.70
2022-12-02T06:19:37.435Z,4.66
2022-12-02T06:20:35.199Z,4.69
2022-12-02T06:21:35.193Z,4.67
2022-12-02T06:22:35.171Z,4.72
2022-12-02T06:23:35.168Z,4.73
2022-12-02T06:24:35.197Z,4.67
2022-12-02T06:25:35.148Z,4.62
2022-12-02T06:26:35.132Z,4.63
2022-12-02T06:27:35.146Z,4.63
2022-12-02T06:28:35.118Z,4.70
2022-12-02T06:29:35.107Z,4.73
2022-12-02T06:30:35.181Z,4.77
2022-12-02T06:31:35.127Z,4.78
2022-12-02T06:32:35.065Z,4.72
2022-12-02T06:33:35.061Z,4.77
2022-12-02T06:34:35.078Z,4.80
2022-12-02T06:35:35.034Z,4.80
2022-12-02T06:36:35.061Z,4.78
2022-12-02T06:37:35.012Z,4.75
2022-12-02T06:38:38.169Z,4.78
2022-12-02T06:39:36.003Z,4.75
2022-12-02T06:40:34.981Z,4.77
2022-12-02T06:41:34.994Z,4.82
2022-12-02T06:42:34.973Z,4.72
2022-12-02T06:43:34.948Z,4.72
2022-12-02T06:44:34.940Z,4.72
2022-12-02T06:45:35.035Z,4.82
2022-12-02T06:46:34.932Z,4.84
2022-12-02T06:47:42.837Z,4.84
2022-12-02T06:48:34.889Z,4.85
2022-12-02T06:49:34.883Z,4.89
2022-12-02T06:50:41.819Z,4.75
2022-12-02T06:51:38.395Z,4.67
2022-12-02T06:52:49.822Z,4.69
2022-12-02T06:53:34.844Z,4.70
2022-12-02T06:54:36.778Z,4.66
2022-12-02T06:55:37.300Z,4.77
2022-12-02T06:56:37.840Z,4.73
2022-12-02T06:57:59.839Z,4.70
2022-12-02T06:58:40.280Z,4.72
2022-12-02T06:59:38.348Z,4.69
2022-12-02T07:00:37.834Z,4.77
2022-12-02T07:01:39.825Z,4.78
2022-12-02T07:02:34.784Z,4.72
2022-12-02T07:03:34.757Z,4.69
2022-12-02T07:04:34.720Z,4.69
2022-12-02T07:05:34.709Z,4.65
2022-12-02T07:06:34.818Z,4.65
2022-12-02T07:07:34.855Z,4.69
2022-12-02T07:08:34.685Z,4.63
2022-12-02T07:09:34.701Z,4.62
2022-12-02T07:10:34.684Z,4.60
2022-12-02T07:11:34.646Z,4.58
2022-12-02T07:12:34.640Z,4.58
2022-12-02T07:13:34.654Z,4.58
2022-12-02T07:14:34.614Z,4.51
2022-12-02T07:15:34.603Z,4.54
2022-12-02T07:16:34.644Z,4.54
2022-12-02T07:17:34.583Z,4.59
2022-12-02T07:18:34.583Z,4.58
2022-12-02T07:19:34.559Z,4.63
2022-12-02T07:20:34.546Z,4.66
2022-12-02T07:21:34.574Z,4.72
2022-12-02T07:22:34.561Z,4.70
2022-12-02T07:23:34.512Z,4.67
2022-12-02T07:24:34.522Z,4.73
2022-12-02T07:25:34.491Z,4.80
2022-12-02T07:26:34.493Z,4.70
2022-12-02T07:27:34.499Z,4.69
2022-12-02T07:28:34.482Z,4.72
2022-12-02T07:29:34.471Z,4.73
2022-12-02T07:30:34.521Z,4.77
2022-12-02T07:31:34.445Z,4.78
2022-12-02T07:32:34.429Z,4.75
2022-12-02T07:33:34.407Z,4.82
2022-12-02T07:34:34.567Z,4.82
2022-12-02T07:35:34.397Z,4.82
2022-12-02T07:36:34.385Z,4.80
2022-12-02T07:37:34.426Z,4.85
2022-12-02T07:39:04.843Z,4.78
2022-12-02T07:39:35.365Z,4.86
2022-12-02T07:40:34.337Z,4.82
2022-12-02T07:41:36.912Z,4.91
2022-12-02T07:42:34.351Z,4.91
2022-12-02T07:43:34.327Z,4.94
2022-12-02T07:44:34.298Z,4.94
2022-12-02T07:45:34.277Z,5.00
2022-12-02T07:46:34.334Z,5.02
2022-12-02T07:47:34.272Z,5.00
2022-12-02T07:48:34.255Z,4.94
2022-12-02T07:49:34.327Z,4.85
2022-12-02T07:50:34.229Z,4.82
2022-12-02T07:51:34.221Z,4.80
2022-12-02T07:52:34.221Z,4.88
2022-12-02T07:53:34.199Z,4.78
2022-12-02T07:54:34.202Z,4.89
2022-12-02T07:55:34.196Z,4.92
2022-12-02T07:56:34.185Z,4.80
2022-12-02T07:57:35.087Z,4.85
2022-12-02T07:59:09.543Z,4.84
2022-12-02T07:59:35.121Z,4.89
2022-12-02T08:00:34.120Z,4.84
2022-12-02T08:01:34.193Z,4.85
2022-12-02T08:02:34.093Z,4.84
2022-12-02T08:03:34.097Z,4.82
2022-12-02T08:04:34.185Z,4.86
2022-12-02T08:05:34.074Z,4.94
2022-12-02T08:06:39.004Z,4.85
2022-12-02T08:07:34.163Z,4.80
2022-12-02T08:08:34.039Z,4.82
2022-12-02T08:09:34.036Z,4.82
2022-12-02T08:10:34.037Z,4.75
2022-12-02T08:11:34.025Z,4.78
2022-12-02T08:12:33.991Z,4.77
2022-12-02T08:13:33.999Z,4.84
2022-12-02T08:14:33.974Z,4.84
2022-12-02T08:15:33.971Z,4.89
2022-12-02T08:16:34.048Z,4.91
2022-12-02T08:17:33.932Z,4.89
2022-12-02T08:18:33.937Z,4.75
2022-12-02T08:19:33.921Z,4.65
2022-12-02T08:20:33.902Z,4.67
2022-12-02T08:21:33.912Z,4.73
2022-12-02T08:22:33.889Z,4.78
2022-12-02T08:23:33.875Z,4.70
2022-12-02T08:24:33.883Z,4.72
2022-12-02T08:25:33.852Z,4.72
2022-12-02T08:26:33.872Z,4.80
2022-12-02T08:27:33.834Z,4.80
2022-12-02T08:28:33.821Z,4.86
2022-12-02T08:29:33.812Z,4.82
2022-12-02T08:30:33.863Z,4.86
2022-12-02T08:31:33.816Z,4.86
2022-12-02T08:32:33.775Z,4.89
2022-12-02T08:33:33.766Z,4.91
2022-12-02T08:34:33.755Z,4.92
2022-12-02T08:35:33.747Z,4.97
2022-12-02T08:36:33.743Z,4.91
2022-12-02T08:37:33.730Z,4.97
2022-12-02T08:38:33.707Z,4.92
2022-12-02T08:39:33.700Z,4.91
2022-12-02T08:40:33.692Z,4.99
2022-12-02T08:41:33.715Z,5.02
2022-12-02T08:42:33.681Z,4.97
2022-12-02T08:43:33.671Z,4.97
2022-12-02T08:44:33.663Z,4.99
2022-12-02T08:45:33.643Z,5.03
2022-12-02T08:46:33.656Z,5.12
2022-12-02T08:47:33.606Z,5.04
2022-12-02T08:48:33.593Z,5.02
2022-12-02T08:49:33.610Z,5.00
2022-12-02T08:50:33.577Z,5.03
2022-12-02T08:51:33.616Z,5.02
2022-12-02T08:52:33.556Z,5.09
2022-12-02T08:53:33.568Z,5.17
2022-12-02T08:54:33.551Z,5.21
2022-12-02T08:55:33.536Z,5.15
2022-12-02T08:56:33.556Z,5.03
2022-12-02T08:57:33.512Z,5.02
2022-12-02T08:58:33.537Z,5.02
2022-12-02T08:59:33.503Z,5.03
2022-12-02T09:00:38.711Z,4.88
2022-12-02T09:01:34.552Z,4.84
2022-12-02T09:02:33.527Z,4.85
2022-12-02T09:03:33.440Z,4.94
2022-12-02T09:04:33.453Z,4.97
2022-12-02T09:05:33.446Z,4.84
2022-12-02T09:06:36.255Z,4.92
2022-12-02T09:07:33.434Z,4.96
2022-12-02T09:08:33.415Z,4.97
2022-12-02T09:09:33.380Z,4.99
2022-12-02T09:10:33.407Z,4.97
2022-12-02T09:11:33.407Z,4.99
2022-12-02T09:12:33.340Z,4.92
2022-12-02T09:13:33.342Z,5.03
2022-12-02T09:14:33.448Z,5.02
2022-12-02T09:15:33.380Z,5.04
2022-12-02T09:16:33.287Z,4.94
2022-12-02T09:17:33.290Z,4.96
2022-12-02T09:18:33.274Z,4.99
2022-12-02T09:19:33.284Z,4.84
2022-12-02T09:20:33.263Z,4.73
2022-12-02T09:21:33.306Z,4.73
2022-12-02T09:22:33.240Z,4.73
2022-12-02T09:23:33.269Z,4.73
2022-12-02T09:24:33.215Z,4.75
2022-12-02T09:25:33.199Z,4.80
2022-12-02T09:26:33.192Z,4.85
2022-12-02T09:27:33.181Z,4.92
2022-12-02T09:28:33.193Z,4.89
2022-12-02T09:29:33.180Z,4.99
2022-12-02T09:30:33.156Z,4.97
2022-12-02T09:31:33.229Z,4.97
2022-12-02T09:32:33.124Z,4.99
2022-12-02T09:33:34.069Z,4.99
2022-12-02T09:34:33.098Z,4.97
2022-12-02T09:35:33.150Z,4.99
2022-12-02T09:36:33.107Z,5.04
2022-12-02T09:37:33.073Z,5.02
2022-12-02T09:38:33.064Z,5.02
2022-12-02T09:39:38.493Z,5.02
2022-12-02T09:40:34.034Z,4.92
2022-12-02T09:41:33.054Z,4.97
2022-12-02T09:42:33.035Z,4.99
2022-12-02T09:43:33.016Z,5.02
2022-12-02T09:44:33.052Z,5.03
2022-12-02T09:45:32.987Z,5.04
2022-12-02T09:46:33.086Z,5.06
2022-12-02T09:47:32.984Z,5.12
2022-12-02T09:48:32.966Z,5.10
2022-12-02T09:49:32.937Z,4.96
2022-12-02T09:50:32.944Z,4.96
2022-12-02T09:51:32.920Z,5.02
2022-12-02T09:52:32.929Z,5.00
2022-12-02T09:53:32.932Z,5.02
2022-12-02T09:54:32.886Z,5.07
2022-12-02T09:55:32.903Z,5.00
2022-12-02T09:56:32.877Z,5.02
2022-12-02T09:57:38.704Z,5.02
2022-12-02T09:58:33.842Z,5.10
2022-12-02T09:59:32.866Z,5.13
2022-12-02T10:00:32.836Z,5.07
2022-12-02T10:01:32.890Z,5.13
2022-12-02T10:02:32.944Z,5.13
2022-12-02T10:03:32.863Z,5.22
2022-12-02T10:04:32.834Z,5.15
2022-12-02T10:05:32.809Z,5.20
2022-12-02T10:06:32.758Z,5.27
2022-12-02T10:07:32.803Z,5.21
2022-12-02T10:08:32.741Z,5.28
2022-12-02T10:09:32.736Z,5.24
2022-12-02T10:10:32.708Z,5.28
2022-12-02T10:11:32.717Z,5.18
2022-12-02T10:12:32.701Z,5.31
2022-12-02T10:13:32.731Z,5.36
2022-12-02T10:14:32.675Z,5.24
2022-12-02T10:15:32.662Z,5.28
2022-12-02T10:16:32.740Z,5.20
2022-12-02T10:17:32.680Z,5.35
2022-12-02T10:18:32.637Z,5.21
2022-12-02T10:19:32.663Z,5.21
2022-12-02T10:20:32.604Z,5.22
2022-12-02T10:21:32.596Z,5.25
2022-12-02T10:22:32.581Z,5.28
2022-12-02T10:23:37.844Z,5.24
2022-12-02T10:24:33.577Z,5.13
2022-12-02T10:25:32.550Z,5.17
2022-12-02T10:26:32.570Z,5.30
2022-12-02T10:27:32.529Z,5.22
2022-12-02T10:28:32.521Z,5.27
2022-12-02T10:29:32.522Z,5.24
2022-12-02T10:30:32.520Z,5.20
2022-12-02T10:31:32.555Z,5.25
2022-12-02T10:32:32.548Z,5.21
2022-12-02T10:33:32.492Z,5.28
2022-12-02T10:34:32.471Z,5.22
2022-12-02T10:35:32.439Z,5.30
2022-12-02T10:36:32.450Z,5.22
2022-12-02T10:37:32.418Z,5.30
2022-12-02T10:38:32.414Z,5.22
2022-12-02T10:39:37.603Z,5.24
2022-12-02T10:40:33.405Z,5.22
2022-12-02T10:41:32.394Z,5.21
2022-12-02T10:42:32.363Z,5.20
2022-12-02T10:43:32.357Z,5.15
2022-12-02T10:44:32.392Z,5.31
2022-12-02T10:45:32.370Z,5.35
2022-12-02T10:46:32.391Z,5.38
2022-12-02T10:47:32.326Z,5.21
2022-12-02T10:48:32.334Z,5.22
2022-12-02T10:49:32.315Z,5.31
2022-12-02T10:50:32.302Z,5.27
2022-12-02T10:51:32.292Z,5.39
2022-12-02T10:52:32.262Z,5.28
2022-12-02T10:53:32.264Z,5.38
2022-12-02T10:54:33.048Z,5.30
2022-12-02T10:55:32.234Z,5.39
2022-12-02T10:56:32.231Z,5.39
2022-12-02T10:57:32.235Z,5.45
2022-12-02T10:58:32.205Z,5.38
2022-12-02T10:59:32.179Z,5.42
2022-12-02T11:00:32.237Z,5.46
2022-12-02T11:01:32.356Z,5.40
2022-12-02T11:02:32.254Z,5.42
2022-12-02T11:03:32.145Z,5.36
2022-12-02T11:04:32.147Z,5.43
2022-12-02T11:05:32.114Z,5.49
2022-12-02T11:06:32.124Z,5.56
2022-12-02T11:07:32.174Z,5.48
2022-12-02T11:08:32.082Z,5.53
2022-12-02T11:09:40.069Z,5.42
2022-12-02T11:10:33.118Z,5.40
2022-12-02T11:11:32.048Z,5.48
2022-12-02T11:12:32.072Z,5.40
2022-12-02T11:13:32.036Z,5.42
2022-12-02T11:14:32.041Z,5.40
2022-12-02T11:15:32.018Z,5.42
2022-12-02T11:16:32.064Z,5.43
2022-12-02T11:17:32.030Z,5.36
2022-12-02T11:18:32.002Z,5.39
2022-12-02T11:19:31.972Z,5.39
2022-12-02T11:20:31.955Z,5.39
2022-12-02T11:21:31.958Z,5.45
2022-12-02T11:22:31.941Z,5.45
2022-12-02T11:23:31.922Z,5.48
2022-12-02T11:24:31.918Z,5.57
2022-12-02T11:25:31.914Z,5.46
2022-12-02T11:26:31.912Z,5.28
2022-12-02T11:27:31.876Z,5.31
2022-12-02T11:28:31.867Z,5.33
2022-12-02T11:29:31.881Z,5.39
2022-12-02T11:30:31.867Z,5.31
2022-12-02T11:31:31.996Z,5.38
2022-12-02T11:32:31.838Z,5.38
2022-12-02T11:33:31.859Z,5.45
2022-12-02T11:34:42.702Z,5.42
2022-12-02T11:35:32.797Z,5.42
2022-12-02T11:36:31.776Z,5.48
2022-12-02T11:37:31.766Z,5.40
2022-12-02T11:38:31.800Z,5.38
2022-12-02T11:39:31.756Z,5.38
2022-12-02T11:40:31.747Z,5.39
2022-12-02T11:41:31.752Z,5.33
2022-12-02T11:42:31.723Z,5.42
2022-12-02T11:43:31.712Z,5.46
2022-12-02T11:44:31.736Z,5.38
2022-12-02T11:45:31.730Z,5.42
2022-12-02T11:46:31.673Z,5.43
2022-12-02T11:47:31.700Z,5.43
2022-12-02T11:48:31.648Z,5.35
2022-12-02T11:49:31.645Z,5.39
2022-12-02T11:50:31.658Z,5.45
2022-12-02T11:51:31.622Z,5.42
2022-12-02T11:52:31.624Z,5.40
2022-12-02T11:53:31.599Z,5.45
2022-12-02T11:54:31.601Z,5.43
2022-12-02T11:55:31.593Z,5.45
2022-12-02T11:56:31.560Z,5.40
2022-12-02T11:57:31.569Z,5.28
2022-12-02T11:58:31.584Z,5.36
2022-12-02T11:59:31.540Z,5.27
2022-12-02T12:00:37.571Z,5.39
2022-12-02T12:01:32.513Z,5.28
2022-12-02T12:02:31.545Z,5.28
2022-12-02T12:03:31.587Z,5.21
2022-12-02T12:04:31.481Z,5.17
2022-12-02T12:05:31.476Z,5.18
2022-12-02T12:06:31.466Z,5.13
2022-12-02T12:07:31.529Z,5.04
2022-12-02T12:08:31.473Z,4.99
2022-12-02T12:09:31.447Z,4.78
2022-12-02T12:10:31.422Z,4.77
2022-12-02T12:11:31.417Z,4.75
2022-12-02T12:12:31.399Z,4.77
2022-12-02T12:13:35.702Z,4.73
2022-12-02T12:14:32.384Z,4.75
2022-12-02T12:15:31.392Z,4.77
2022-12-02T12:16:31.408Z,4.77
2022-12-02T12:17:31.340Z,4.84
2022-12-02T12:18:31.360Z,4.73
2022-12-02T12:19:31.315Z,4.75
2022-12-02T12:20:31.330Z,4.70
2022-12-02T12:21:31.327Z,4.73
2022-12-02T12:22:31.283Z,4.67
2022-12-02T12:23:31.322Z,4.70
2022-12-02T12:24:31.280Z,4.67
2022-12-02T12:25:31.263Z,4.65
2022-12-02T12:26:31.309Z,4.59
2022-12-02T12:27:31.249Z,4.55
2022-12-02T12:28:31.221Z,4.55
2022-12-02T12:29:31.210Z,4.69
2022-12-02T12:30:31.209Z,4.65
2022-12-02T12:31:35.001Z,4.52
2022-12-02T12:32:32.189Z,4.62
2022-12-02T12:33:31.162Z,4.50
2022-12-02T12:34:31.151Z,4.48
2022-12-02T12:35:31.160Z,4.54
2022-12-02T12:36:31.151Z,4.41
2022-12-02T12:37:31.125Z,4.42
2022-12-02T12:38:31.338Z,4.42
2022-12-02T12:39:31.112Z,4.55
2022-12-02T12:40:31.088Z,4.58
2022-12-02T12:41:58.553Z,4.52
2022-12-02T12:42:32.090Z,4.59
2022-12-02T12:43:31.072Z,4.48
2022-12-02T12:44:32.661Z,4.48
2022-12-02T12:45:31.038Z,4.48
2022-12-02T12:46:31.084Z,4.50
2022-12-02T12:47:31.037Z,4.42
2022-12-02T12:48:31.003Z,4.41
2022-12-02T12:49:31.143Z,4.42
2022-12-02T12:50:30.979Z,4.47
2022-12-02T12:51:30.984Z,4.41
2022-12-02T12:52:30.987Z,4.42
2022-12-02T12:53:30.951Z,4.36
2022-12-02T12:54:30.941Z,4.32
2022-12-02T12:55:30.938Z,4.12
2022-12-02T12:56:30.916Z,4.26
2022-12-02T12:57:30.914Z,4.23
2022-12-02T12:58:30.902Z,4.18
2022-12-02T12:59:30.895Z,4.44
2022-12-02T13:00:30.875Z,4.20
2022-12-02T13:01:30.896Z,4.23
2022-12-02T13:02:30.908Z,4.30
2022-12-02T13:03:30.858Z,4.29
2022-12-02T13:04:30.836Z,4.27
2022-12-02T13:05:30.826Z,4.36
2022-12-02T13:06:30.855Z,4.41
2022-12-02T13:07:30.821Z,4.34
2022-12-02T13:08:30.887Z,4.34
2022-12-02T13:09:30.810Z,4.27
2022-12-02T13:10:30.835Z,4.20
2022-12-02T13:11:30.768Z,4.29
2022-12-02T13:12:30.810Z,4.14
2022-12-02T13:13:30.730Z,4.16
2022-12-02T13:14:30.747Z,4.22
2022-12-02T13:15:30.703Z,4.32
2022-12-02T13:16:30.832Z,4.34
2022-12-02T13:17:30.687Z,4.29
2022-12-02T13:18:30.757Z,4.29
2022-12-02T13:19:30.691Z,4.33
2022-12-02T13:20:30.693Z,4.42
2022-12-02T13:21:30.676Z,4.44
2022-12-02T13:22:30.636Z,4.41
2022-12-02T13:23:30.618Z,4.40
2022-12-02T13:24:30.616Z,4.30
2022-12-02T13:25:30.642Z,4.30
2022-12-02T13:26:30.605Z,4.20
2022-12-02T13:27:30.632Z,4.27
2022-12-02T13:28:30.560Z,4.24
2022-12-02T13:29:30.562Z,4.26
2022-12-02T13:30:30.620Z,4.34
2022-12-02T13:31:30.676Z,4.22
2022-12-02T13:32:30.571Z,4.27
2022-12-02T13:33:30.548Z,4.26
2022-12-02T13:34:30.507Z,4.29
2022-12-02T13:35:30.483Z,4.20
2022-12-02T13:36:30.482Z,4.30
2022-12-02T13:37:30.466Z,4.29
2022-12-02T13:38:30.473Z,4.24
2022-12-02T13:39:30.477Z,4.34
2022-12-02T13:40:30.451Z,4.30
2022-12-02T13:41:30.421Z,4.30
2022-12-02T13:42:30.425Z,4.30
2022-12-02T13:43:30.426Z,4.22
2022-12-02T13:44:30.396Z,4.33
2022-12-02T13:45:30.421Z,4.33
2022-12-02T13:46:30.465Z,4.29
2022-12-02T13:47:30.365Z,4.30
2022-12-02T13:48:30.363Z,4.15
2022-12-02T13:49:30.357Z,4.23
2022-12-02T13:50:30.329Z,4.36
2022-12-02T13:51:30.337Z,4.14
2022-12-02T13:52:30.308Z,4.22
2022-12-02T13:53:30.286Z,4.18
2022-12-02T13:54:30.303Z,4.32
2022-12-02T13:55:30.274Z,4.32
2022-12-02T13:56:30.264Z,4.26
2022-12-02T13:57:30.302Z,4.32
2022-12-02T13:58:30.255Z,4.29
2022-12-02T13:59:35.961Z,4.26
2022-12-02T14:00:31.224Z,4.37
2022-12-02T14:01:30.291Z,4.23
2022-12-02T14:02:30.217Z,4.32
2022-12-02T14:03:30.335Z,4.23
2022-12-02T14:04:30.177Z,4.32
2022-12-02T14:05:30.154Z,4.34
2022-12-02T14:06:30.176Z,4.27
2022-12-02T14:07:30.199Z,4.33
2022-12-02T14:08:30.133Z,4.30
2022-12-02T14:09:30.184Z,4.41
2022-12-02T14:10:30.117Z,4.41
2022-12-02T14:11:30.095Z,4.40
2022-12-02T14:12:30.106Z,4.36
2022-12-02T14:13:30.086Z,4.42
2022-12-02T14:14:30.086Z,4.34
2022-12-02T14:15:30.191Z,4.34
2022-12-02T14:16:30.249Z,4.44
2022-12-02T14:17:30.030Z,4.41
2022-12-02T14:18:30.036Z,4.40
2022-12-02T14:19:30.023Z,4.42
2022-12-02T14:20:30.051Z,4.32
2022-12-02T14:21:30.012Z,4.29
2022-12-02T14:22:29.998Z,4.26
2022-12-02T14:23:29.974Z,4.27
2022-12-02T14:24:29.956Z,4.32
2022-12-02T14:25:29.963Z,4.34
2022-12-02T14:26:29.936Z,4.32
2022-12-02T14:27:29.940Z,4.30
2022-12-02T14:28:29.934Z,4.27
2022-12-02T14:29:29.903Z,4.30
2022-12-02T14:30:29.919Z,4.26
2022-12-02T14:31:29.928Z,4.33
2022-12-02T14:32:29.873Z,4.30
2022-12-02T14:33:54.756Z,4.36
2022-12-02T14:34:30.862Z,4.24
2022-12-02T14:35:29.845Z,4.29
2022-12-02T14:36:29.854Z,4.30
2022-12-02T14:37:29.813Z,4.32
2022-12-02T14:38:29.822Z,4.29
2022-12-02T14:39:29.792Z,4.29
2022-12-02T14:40:29.788Z,4.37
2022-12-02T14:41:29.775Z,4.27
2022-12-02T14:42:29.782Z,4.32
2022-12-02T14:43:29.778Z,4.30
2022-12-02T14:44:29.752Z,4.27
2022-12-02T14:45:29.751Z,4.23
2022-12-02T14:46:29.763Z,4.26
2022-12-02T14:47:29.712Z,4.30
2022-12-02T14:48:29.721Z,4.30
2022-12-02T14:49:44.985Z,4.30
2022-12-02T14:50:30.740Z,4.32
2022-12-02T14:51:29.659Z,4.27
2022-12-02T14:52:29.669Z,4.37
2022-12-02T14:53:29.644Z,4.29
2022-12-02T14:54:29.684Z,4.32
2022-12-02T14:55:29.642Z,4.32
2022-12-02T14:56:29.648Z,4.27
2022-12-02T14:57:29.599Z,4.32
2022-12-02T14:58:29.587Z,4.24
2022-12-02T14:59:29.582Z,4.32
2022-12-02T15:00:29.591Z,4.23
2022-12-02T15:01:29.599Z,4.33
2022-12-02T15:02:29.601Z,4.29
2022-12-02T15:03:29.578Z,4.37
2022-12-02T15:04:29.536Z,4.36
2022-12-02T15:05:29.515Z,4.32
2022-12-02T15:06:29.522Z,4.30
2022-12-02T15:07:29.609Z,4.29
2022-12-02T15:08:29.477Z,4.30
2022-12-02T15:09:29.463Z,4.27
2022-12-02T15:10:29.477Z,4.16
2022-12-02T15:11:29.451Z,4.24
2022-12-02T15:12:29.493Z,4.24
2022-12-02T15:13:29.416Z,4.08
2022-12-02T15:14:29.420Z,4.05
2022-12-02T15:15:37.914Z,4.06
2022-12-02T15:16:30.448Z,4.11
2022-12-02T15:17:29.378Z,4.14
2022-12-02T15:18:29.385Z,4.06
2022-12-02T15:19:29.377Z,4.08
2022-12-02T15:20:29.343Z,4.15
2022-12-02T15:21:29.333Z,4.16
2022-12-02T15:22:29.344Z,4.14
2022-12-02T15:23:29.313Z,4.15
2022-12-02T15:24:29.336Z,4.12
2022-12-02T15:25:29.314Z,4.11
2022-12-02T15:26:29.299Z,4.04
2022-12-02T15:27:29.265Z,4.02
2022-12-02T15:28:29.278Z,4.02
2022-12-02T15:29:29.299Z,4.20
2022-12-02T15:30:29.241Z,4.09
2022-12-02T15:31:29.365Z,4.09
2022-12-02T15:32:29.272Z,3.97
2022-12-02T15:33:29.202Z,4.04
2022-12-02T15:34:29.197Z,3.96
2022-12-02T15:35:29.184Z,4.05
2022-12-02T15:36:29.182Z,4.04
2022-12-02T15:37:29.189Z,4.04
2022-12-02T15:38:29.931Z,4.08
2022-12-02T15:39:29.240Z,4.02
2022-12-02T15:40:29.137Z,4.04
2022-12-02T15:41:29.135Z,4.00
2022-12-02T15:42:29.130Z,4.05
2022-12-02T15:43:29.101Z,4.02
2022-12-02T15:44:29.116Z,4.09
2022-12-02T15:45:29.106Z,4.09
2022-12-02T15:46:29.123Z,4.04
2022-12-02T15:47:29.061Z,4.05
2022-12-02T15:48:29.052Z,4.02
2022-12-02T15:49:29.097Z,3.98
2022-12-02T15:50:29.033Z,4.08
2022-12-02T15:51:29.069Z,4.09
2022-12-02T15:52:29.017Z,4.02
2022-12-02T15:53:28.989Z,4.04
2022-12-02T15:54:28.996Z,4.04
2022-12-02T15:55:28.978Z,4.09
2022-12-02T15:56:28.973Z,4.09
2022-12-02T15:57:28.981Z,4.08
2022-12-02T15:58:28.960Z,4.05
2022-12-02T15:59:28.926Z,4.05
2022-12-02T16:00:28.917Z,4.15
2022-12-02T16:01:29.034Z,4.16
2022-12-02T16:02:29.016Z,4.11
2022-12-02T16:03:28.921Z,4.12
2022-12-02T16:04:28.866Z,4.15
2022-12-02T16:05:28.861Z,4.20
2022-12-02T16:06:28.873Z,4.05
2022-12-02T16:07:28.886Z,4.23
2022-12-02T16:08:28.829Z,4.15
2022-12-02T16:09:28.920Z,4.16
2022-12-02T16:10:28.828Z,4.18
2022-12-02T16:11:28.800Z,4.14
2022-12-02T16:12:28.788Z,4.06
2022-12-02T16:13:28.804Z,4.04
2022-12-02T16:14:28.782Z,4.08
2022-12-02T16:15:28.857Z,4.08
2022-12-02T16:16:28.846Z,4.02
2022-12-02T16:17:28.735Z,4.05
2022-12-02T16:18:28.739Z,3.98
2022-12-02T16:19:28.778Z,4.05
2022-12-02T16:20:28.740Z,4.02
2022-12-02T16:21:28.689Z,4.04
2022-12-02T16:22:28.727Z,4.02
2022-12-02T16:23:28.660Z,4.06
2022-12-02T16:24:28.652Z,4.05
2022-12-02T16:25:28.677Z,4.05
2022-12-02T16:26:28.666Z,4.06
2022-12-02T16:27:28.644Z,4.06
2022-12-02T16:28:28.626Z,4.04
2022-12-02T16:29:28.605Z,4.06
2022-12-02T16:30:28.631Z,4.02
2022-12-02T16:31:28.617Z,4.04
2022-12-02T16:32:28.576Z,3.94
2022-12-02T16:33:28.574Z,3.94
2022-12-02T16:34:28.546Z,3.97
2022-12-02T16:35:28.534Z,3.94
2022-12-02T16:36:28.527Z,3.96
2022-12-02T16:37:28.561Z,3.96
2022-12-02T16:38:28.519Z,3.97
2022-12-02T16:39:28.554Z,3.93
2022-12-02T16:40:28.480Z,3.90
2022-12-02T16:41:28.475Z,3.94
2022-12-02T16:42:28.470Z,3.90
2022-12-02T16:43:28.453Z,3.98
2022-12-02T16:44:28.438Z,4.00
2022-12-02T16:45:28.506Z,3.90
2022-12-02T16:46:28.548Z,3.96
2022-12-02T16:47:28.498Z,3.93
2022-12-02T16:48:28.420Z,3.96
2022-12-02T16:49:28.382Z,3.97
2022-12-02T16:50:28.382Z,4.04
2022-12-02T16:51:28.544Z,4.00
2022-12-02T16:52:28.374Z,3.98
2022-12-02T16:53:28.448Z,4.08
2022-12-02T16:54:28.364Z,4.04
2022-12-02T16:55:28.443Z,4.06
2022-12-02T16:56:28.312Z,4.06
2022-12-02T16:57:28.594Z,4.09
2022-12-02T16:58:29.192Z,4.05
2022-12-02T16:59:28.465Z,4.08
2022-12-02T17:00:28.333Z,4.00
2022-12-02T17:01:28.668Z,4.02
2022-12-02T17:02:32.105Z,4.08
2022-12-02T17:03:28.345Z,4.04
2022-12-02T17:04:28.380Z,4.05
2022-12-02T17:05:28.330Z,4.05
2022-12-02T17:06:28.343Z,4.12
2022-12-02T17:07:28.412Z,4.09
2022-12-02T17:08:28.359Z,4.14
2022-12-02T17:09:28.256Z,4.02
2022-12-02T17:10:28.269Z,4.14
2022-12-02T17:11:28.255Z,3.98
2022-12-02T17:12:28.139Z,4.15
2022-12-02T17:13:28.404Z,3.94
2022-12-02T17:14:28.200Z,3.90
2022-12-02T17:15:28.923Z,3.87
2022-12-02T17:16:28.288Z,3.88
2022-12-02T17:17:45.326Z,3.86
2022-12-02T17:18:30.091Z,3.93
2022-12-02T17:19:30.087Z,3.91
2022-12-02T17:20:30.126Z,3.97
2022-12-02T17:21:28.322Z,3.88
2022-12-02T17:22:28.145Z,3.96
2022-12-02T17:23:31.780Z,3.91
2022-12-02T17:24:28.180Z,3.97
2022-12-02T17:25:28.223Z,3.93
2022-12-02T17:26:30.090Z,3.98
2022-12-02T17:27:28.532Z,3.96
2022-12-02T17:28:28.216Z,3.97
2022-12-02T17:29:28.355Z,3.96
2022-12-02T17:30:28.134Z,3.96
2022-12-02T17:31:28.185Z,3.96
2022-12-02T17:32:28.028Z,3.96
2022-12-02T17:33:27.944Z,3.97
2022-12-02T17:34:30.076Z,3.97
2022-12-02T17:35:47.359Z,3.93
2022-12-02T17:36:29.244Z,3.96
2022-12-02T17:37:28.141Z,3.93
2022-12-02T17:38:28.014Z,3.90
2022-12-02T17:39:28.029Z,3.93
2022-12-02T17:40:28.082Z,4.02
2022-12-02T17:41:27.844Z,3.91
2022-12-02T17:42:27.984Z,3.98
2022-12-02T17:43:28.023Z,3.91
2022-12-02T17:44:27.980Z,3.90
2022-12-02T17:45:27.935Z,3.94
2022-12-02T17:46:27.869Z,3.94
2022-12-02T17:47:27.932Z,3.91
2022-12-02T17:48:27.960Z,3.97
2022-12-02T17:49:33.826Z,3.93
2022-12-02T17:50:27.728Z,3.83
2022-12-02T17:51:28.697Z,3.94
2022-12-02T17:52:28.050Z,3.93
2022-12-02T17:53:27.737Z,3.88
2022-12-02T17:54:27.707Z,3.90
2022-12-02T17:55:27.696Z,3.97
2022-12-02T17:56:27.840Z,3.94
2022-12-02T17:57:27.717Z,3.83
2022-12-02T17:58:27.746Z,3.93
2022-12-02T17:59:27.666Z,3.94
2022-12-02T18:00:28.290Z,3.94
2022-12-02T18:01:27.718Z,3.98
2022-12-02T18:02:27.791Z,3.93
2022-12-02T18:03:27.605Z,3.97
2022-12-02T18:04:27.599Z,3.97
2022-12-02T18:05:27.664Z,3.91
2022-12-02T18:06:27.648Z,3.98
2022-12-02T18:07:27.644Z,3.96
2022-12-02T18:08:27.564Z,3.97
2022-12-02T18:09:27.573Z,3.98
2022-12-02T18:10:27.603Z,3.91
2022-12-02T18:11:27.646Z,3.79
2022-12-02T18:12:27.643Z,3.93
2022-12-02T18:13:27.581Z,3.97
2022-12-02T18:14:27.585Z,3.94
2022-12-02T18:15:27.601Z,3.97
2022-12-02T18:16:28.193Z,3.96
2022-12-02T18:17:27.470Z,3.94
2022-12-02T18:18:27.602Z,3.94
2022-12-02T18:19:27.611Z,3.93
2022-12-02T18:20:27.504Z,3.97
2022-12-02T18:21:27.538Z,3.91
2022-12-02T18:22:27.517Z,3.93
2022-12-02T18:23:28.009Z,3.96
2022-12-02T18:24:27.440Z,4.00
2022-12-02T18:25:27.406Z,3.98
2022-12-02T18:26:27.449Z,3.93
2022-12-02T18:27:27.464Z,3.91
2022-12-02T18:28:27.381Z,3.94
2022-12-02T18:29:27.327Z,3.97
2022-12-02T18:30:27.593Z,3.97
2022-12-02T18:31:27.550Z,3.90
2022-12-02T18:32:27.355Z,3.96
2022-12-02T18:33:27.381Z,3.96
2022-12-02T18:34:27.302Z,3.93
2022-12-02T18:35:27.292Z,3.94
2022-12-02T18:36:27.316Z,3.93
2022-12-02T18:37:27.376Z,4.04
2022-12-02T18:38:27.375Z,3.97
2022-12-02T18:39:27.918Z,3.97
2022-12-02T18:40:27.268Z,4.05
2022-12-02T18:41:27.273Z,3.98
2022-12-02T18:42:27.244Z,4.05
2022-12-02T18:43:30.730Z,4.04
2022-12-02T18:44:28.262Z,4.02
2022-12-02T18:45:27.311Z,4.02
2022-12-02T18:46:27.329Z,3.98
2022-12-02T18:47:27.244Z,3.97
2022-12-02T18:48:28.619Z,3.96